sensor_id;sensor_type;location;lat;lon;timestamp;temperature;humidity
2282;DHT22;27486;48.77806476;9.16920056;2022-09-03T00:03:17;19.60;55.40
2282;DHT22;27486;48.77806476;9.16920056;2022-09-03T00:06:15;19.60;55.20
2282;DHT22;27486;48.77806476;9.16920056;2022-09-03T00:09:13;19.60;54.70
2282;DHT22;27486;48.77806476;9.16920056;2022-09-03T00:12:13;19.70;54.40
2282;DHT22;27486;48.77806476;9.16920056;2022-09-03T00:15:14;19.70;54.20
2282;DHT22;27486;48.77806476;9.16920056;2022-09-03T00:18:10;19.80;53.20
2282;DHT22;27486;48.77806476;9.16920056;2022-09-03T00:21:08;19.80;53.20
2282;DHT22;27486;48.77806476;9.16920056;2022-09-03T00:23:56;19.90;53.60
2282;DHT22;27486;48.77806476;9.16920056;2022-09-03T00:26:44;19.90;53.80
2282;DHT22;27486;48.77806476;9.16920056;2022-09-03T00:29:40;20.00;53.70
2282;DHT22;27486;48.77806476;9.16920056;2022-09-03T00:32:41;20.00;53.80
2282;DHT22;27486;48.77806476;9.16920056;2022-09-03T00:35:43;20.00;54.30
2282;DHT22;27486;48.77806476;9.16920056;2022-09-03T00:38:31;20.00;54.00
2282;DHT22;27486;48.77806476;9.16920056;2022-09-03T00:41:35;20.10;53.70
2282;DHT22;27486;48.77806476;9.16920056;2022-09-03T00:44:43;20.10;54.40
2282;DHT22;27486;48.77806476;9.16920056;2022-09-03T00:51:04;20.10;55.30
2282;DHT22;27486;48.77806476;9.16920056;2022-09-03T00:53:59;20.10;55.50
2282;DHT22;27486;48.77806476;9.16920056;2022-09-03T00:57:10;20.10;55.70
2282;DHT22;27486;48.77806476;9.16920056;2022-09-03T01:00:17;20.10;56.00
2282;DHT22;27486;48.77806476;9.16920056;2022-09-03T01:03:22;20.10;56.10
2282;DHT22;27486;48.77806476;9.16920056;2022-09-03T01:06:18;20.10;56.30
2282;DHT22;27486;48.77806476;9.16920056;2022-09-03T01:09:31;20.10;56.50
2282;DHT22;27486;48.77806476;9.16920056;2022-09-03T01:15:19;20.10;56.10
2282;DHT22;27486;48.77806476;9.16920056;2022-09-03T01:18:28;20.10;56.00
2282;DHT22;27486;48.77806476;9.16920056;2022-09-03T01:24:36;20.20;56.00
2282;DHT22;27486;48.77806476;9.16920056;2022-09-03T01:27:40;20.30;56.00
2282;DHT22;27486;48.77806476;9.16920056;2022-09-03T01:30:30;20.20;55.30
2282;DHT22;27486;48.77806476;9.16920056;2022-09-03T01:33:34;20.30;55.60
2282;DHT22;27486;48.77806476;9.16920056;2022-09-03T01:42:48;20.20;56.50
2282;DHT22;27486;48.77806476;9.16920056;2022-09-03T01:45:46;20.30;56.60
2282;DHT22;27486;48.77806476;9.16920056;2022-09-03T01:48:50;20.30;56.70
2282;DHT22;27486;48.77806476;9.16920056;2022-09-03T01:51:36;20.30;56.90
2282;DHT22;27486;48.77806476;9.16920056;2022-09-03T01:54:45;20.30;56.90
2282;DHT22;27486;48.77806476;9.16920056;2022-09-03T01:57:48;20.30;56.80
2282;DHT22;27486;48.77806476;9.16920056;2022-09-03T02:00:34;20.40;56.90
2282;DHT22;27486;48.77806476;9.16920056;2022-09-03T02:03:21;20.40;56.80
2282;DHT22;27486;48.77806476;9.16920056;2022-09-03T02:06:07;20.30;57.00
2282;DHT22;27486;48.77806476;9.16920056;2022-09-03T02:08:52;20.30;56.70
2282;DHT22;27486;48.77806476;9.16920056;2022-09-03T02:11:36;20.40;56.70
2282;DHT22;27486;48.77806476;9.16920056;2022-09-03T02:14:21;20.30;56.60
2282;DHT22;27486;48.77806476;9.16920056;2022-09-03T02:17:06;20.30;56.70
2282;DHT22;27486;48.77806476;9.16920056;2022-09-03T02:19:51;20.40;56.80
2282;DHT22;27486;48.77806476;9.16920056;2022-09-03T02:22:35;20.40;56.70
2282;DHT22;27486;48.77806476;9.16920056;2022-09-03T02:25:21;20.30;56.70
2282;DHT22;27486;48.77806476;9.16920056;2022-09-03T02:28:07;20.30;56.90
2282;DHT22;27486;48.77806476;9.16920056;2022-09-03T02:30:52;20.30;56.90
2282;DHT22;27486;48.77806476;9.16920056;2022-09-03T02:33:38;20.30;56.00
2282;DHT22;27486;48.77806476;9.16920056;2022-09-03T02:36:52;20.30;55.70
2282;DHT22;27486;48.77806476;9.16920056;2022-09-03T02:39:37;20.30;56.20
2282;DHT22;27486;48.77806476;9.16920056;2022-09-03T02:42:21;20.20;56.00
2282;DHT22;27486;48.77806476;9.16920056;2022-09-03T02:45:18;20.10;56.40
2282;DHT22;27486;48.77806476;9.16920056;2022-09-03T02:48:04;20.00;56.50
2282;DHT22;27486;48.77806476;9.16920056;2022-09-03T02:50:48;20.00;56.40
2282;DHT22;27486;48.77806476;9.16920056;2022-09-03T02:53:32;19.80;56.40
2282;DHT22;27486;48.77806476;9.16920056;2022-09-03T02:56:16;19.80;56.70
2282;DHT22;27486;48.77806476;9.16920056;2022-09-03T02:59:02;19.70;57.00
2282;DHT22;27486;48.77806476;9.16920056;2022-09-03T03:01:47;19.60;57.10
2282;DHT22;27486;48.77806476;9.16920056;2022-09-03T03:04:31;19.50;57.40
2282;DHT22;27486;48.77806476;9.16920056;2022-09-03T03:07:16;19.50;57.50
2282;DHT22;27486;48.77806476;9.16920056;2022-09-03T03:09:59;19.40;58.10
2282;DHT22;27486;48.77806476;9.16920056;2022-09-03T03:12:43;19.40;58.70
2282;DHT22;27486;48.77806476;9.16920056;2022-09-03T03:15:28;19.50;59.00
2282;DHT22;27486;48.77806476;9.16920056;2022-09-03T03:18:12;19.40;59.00
2282;DHT22;27486;48.77806476;9.16920056;2022-09-03T03:20:56;19.40;59.50
2282;DHT22;27486;48.77806476;9.16920056;2022-09-03T03:23:46;19.30;59.50
2282;DHT22;27486;48.77806476;9.16920056;2022-09-03T03:26:30;19.30;59.80
2282;DHT22;27486;48.77806476;9.16920056;2022-09-03T03:29:15;19.20;60.00
2282;DHT22;27486;48.77806476;9.16920056;2022-09-03T03:32:03;19.20;60.20
2282;DHT22;27486;48.77806476;9.16920056;2022-09-03T03:34:47;19.20;60.40
2282;DHT22;27486;48.77806476;9.16920056;2022-09-03T03:37:32;19.20;60.70
2282;DHT22;27486;48.77806476;9.16920056;2022-09-03T03:40:17;19.10;60.90
2282;DHT22;27486;48.77806476;9.16920056;2022-09-03T03:43:01;19.10;61.10
2282;DHT22;27486;48.77806476;9.16920056;2022-09-03T03:45:55;19.10;61.30
2282;DHT22;27486;48.77806476;9.16920056;2022-09-03T03:48:40;19.10;61.50
2282;DHT22;27486;48.77806476;9.16920056;2022-09-03T03:51:24;19.10;61.40
2282;DHT22;27486;48.77806476;9.16920056;2022-09-03T03:54:09;19.20;61.20
2282;DHT22;27486;48.77806476;9.16920056;2022-09-03T03:56:53;19.20;61.10
2282;DHT22;27486;48.77806476;9.16920056;2022-09-03T03:59:37;19.30;61.20
2282;DHT22;27486;48.77806476;9.16920056;2022-09-03T04:02:21;19.30;61.30
2282;DHT22;27486;48.77806476;9.16920056;2022-09-03T04:05:05;19.30;61.20
2282;DHT22;27486;48.77806476;9.16920056;2022-09-03T04:07:49;19.30;61.70
2282;DHT22;27486;48.77806476;9.16920056;2022-09-03T04:10:34;19.20;62.20
2282;DHT22;27486;48.77806476;9.16920056;2022-09-03T04:13:18;19.20;62.30
2282;DHT22;27486;48.77806476;9.16920056;2022-09-03T04:16:05;19.20;62.40
2282;DHT22;27486;48.77806476;9.16920056;2022-09-03T04:18:51;19.30;62.50
2282;DHT22;27486;48.77806476;9.16920056;2022-09-03T04:21:35;19.30;62.40
2282;DHT22;27486;48.77806476;9.16920056;2022-09-03T04:24:19;19.30;62.70
2282;DHT22;27486;48.77806476;9.16920056;2022-09-03T04:27:03;19.30;62.40
2282;DHT22;27486;48.77806476;9.16920056;2022-09-03T04:29:48;19.30;62.20
2282;DHT22;27486;48.77806476;9.16920056;2022-09-03T04:32:32;19.30;62.30
2282;DHT22;27486;48.77806476;9.16920056;2022-09-03T04:35:34;19.30;62.60
2282;DHT22;27486;48.77806476;9.16920056;2022-09-03T04:38:18;19.30;62.30
2282;DHT22;27486;48.77806476;9.16920056;2022-09-03T04:41:04;19.30;62.80
2282;DHT22;27486;48.77806476;9.16920056;2022-09-03T04:43:50;19.20;62.80
2282;DHT22;27486;48.77806476;9.16920056;2022-09-03T04:46:34;19.20;62.90
2282;DHT22;27486;48.77806476;9.16920056;2022-09-03T04:49:18;19.10;63.20
2282;DHT22;27486;48.77806476;9.16920056;2022-09-03T04:52:03;19.10;63.40
2282;DHT22;27486;48.77806476;9.16920056;2022-09-03T04:54:47;19.10;63.60
2282;DHT22;27486;48.77806476;9.16920056;2022-09-03T04:57:33;19.10;64.00
2282;DHT22;27486;48.77806476;9.16920056;2022-09-03T05:00:20;19.10;64.10
2282;DHT22;27486;48.77806476;9.16920056;2022-09-03T05:03:04;19.30;64.10
2282;DHT22;27486;48.77806476;9.16920056;2022-09-03T05:05:53;19.30;64.10
2282;DHT22;27486;48.77806476;9.16920056;2022-09-03T05:08:38;19.40;64.40
2282;DHT22;27486;48.77806476;9.16920056;2022-09-03T05:11:24;19.40;64.50
2282;DHT22;27486;48.77806476;9.16920056;2022-09-03T05:14:09;19.50;64.30
2282;DHT22;27486;48.77806476;9.16920056;2022-09-03T05:16:55;19.50;64.20
2282;DHT22;27486;48.77806476;9.16920056;2022-09-03T05:19:39;19.60;64.30
2282;DHT22;27486;48.77806476;9.16920056;2022-09-03T05:22:23;19.60;64.10
2282;DHT22;27486;48.77806476;9.16920056;2022-09-03T05:25:07;19.70;63.90
2282;DHT22;27486;48.77806476;9.16920056;2022-09-03T05:27:51;19.70;63.80
2282;DHT22;27486;48.77806476;9.16920056;2022-09-03T05:30:37;19.80;64.30
2282;DHT22;27486;48.77806476;9.16920056;2022-09-03T05:33:21;19.80;63.10
2282;DHT22;27486;48.77806476;9.16920056;2022-09-03T05:36:09;19.90;63.20
2282;DHT22;27486;48.77806476;9.16920056;2022-09-03T05:38:54;20.00;62.70
2282;DHT22;27486;48.77806476;9.16920056;2022-09-03T05:41:38;20.00;62.60
2282;DHT22;27486;48.77806476;9.16920056;2022-09-03T05:44:22;20.10;62.60
2282;DHT22;27486;48.77806476;9.16920056;2022-09-03T05:47:07;20.20;62.20
2282;DHT22;27486;48.77806476;9.16920056;2022-09-03T05:49:51;20.20;61.70
2282;DHT22;27486;48.77806476;9.16920056;2022-09-03T05:52:35;20.30;61.70
2282;DHT22;27486;48.77806476;9.16920056;2022-09-03T05:55:19;20.40;61.40
2282;DHT22;27486;48.77806476;9.16920056;2022-09-03T05:58:03;20.40;61.40
2282;DHT22;27486;48.77806476;9.16920056;2022-09-03T06:00:47;20.50;61.50
2282;DHT22;27486;48.77806476;9.16920056;2022-09-03T06:03:31;20.60;62.00
2282;DHT22;27486;48.77806476;9.16920056;2022-09-03T06:06:15;20.70;62.10
2282;DHT22;27486;48.77806476;9.16920056;2022-09-03T06:09:02;20.80;61.90
2282;DHT22;27486;48.77806476;9.16920056;2022-09-03T06:11:47;20.80;61.70
2282;DHT22;27486;48.77806476;9.16920056;2022-09-03T06:14:34;20.90;61.30
2282;DHT22;27486;48.77806476;9.16920056;2022-09-03T06:17:18;20.90;61.20
2282;DHT22;27486;48.77806476;9.16920056;2022-09-03T06:20:03;20.90;61.90
2282;DHT22;27486;48.77806476;9.16920056;2022-09-03T06:22:50;20.80;62.40
2282;DHT22;27486;48.77806476;9.16920056;2022-09-03T06:25:35;20.90;62.50
2282;DHT22;27486;48.77806476;9.16920056;2022-09-03T06:28:20;21.10;62.30
2282;DHT22;27486;48.77806476;9.16920056;2022-09-03T06:31:07;21.30;62.20
2282;DHT22;27486;48.77806476;9.16920056;2022-09-03T06:33:51;21.50;61.90
2282;DHT22;27486;48.77806476;9.16920056;2022-09-03T06:36:36;21.60;61.80
2282;DHT22;27486;48.77806476;9.16920056;2022-09-03T06:39:20;21.60;61.70
2282;DHT22;27486;48.77806476;9.16920056;2022-09-03T06:42:04;21.70;61.60
2282;DHT22;27486;48.77806476;9.16920056;2022-09-03T06:44:48;21.80;61.70
2282;DHT22;27486;48.77806476;9.16920056;2022-09-03T06:47:34;21.80;61.60
2282;DHT22;27486;48.77806476;9.16920056;2022-09-03T06:50:18;21.90;61.60
2282;DHT22;27486;48.77806476;9.16920056;2022-09-03T06:53:02;22.00;61.30
2282;DHT22;27486;48.77806476;9.16920056;2022-09-03T06:55:55;22.20;61.30
2282;DHT22;27486;48.77806476;9.16920056;2022-09-03T06:58:50;22.40;60.90
2282;DHT22;27486;48.77806476;9.16920056;2022-09-03T07:01:34;22.60;60.60
2282;DHT22;27486;48.77806476;9.16920056;2022-09-03T07:04:18;22.90;60.20
2282;DHT22;27486;48.77806476;9.16920056;2022-09-03T07:07:04;23.10;59.80
2282;DHT22;27486;48.77806476;9.16920056;2022-09-03T07:09:48;23.20;59.50
2282;DHT22;27486;48.77806476;9.16920056;2022-09-03T07:12:32;23.40;59.30
2282;DHT22;27486;48.77806476;9.16920056;2022-09-03T07:15:20;23.40;59.20
2282;DHT22;27486;48.77806476;9.16920056;2022-09-03T07:18:04;23.50;59.10
2282;DHT22;27486;48.77806476;9.16920056;2022-09-03T07:20:48;23.60;59.20
2282;DHT22;27486;48.77806476;9.16920056;2022-09-03T07:23:34;23.60;59.00
2282;DHT22;27486;48.77806476;9.16920056;2022-09-03T07:26:21;23.70;58.80
2282;DHT22;27486;48.77806476;9.16920056;2022-09-03T07:29:06;23.70;58.70
2282;DHT22;27486;48.77806476;9.16920056;2022-09-03T07:31:50;23.90;58.90
2282;DHT22;27486;48.77806476;9.16920056;2022-09-03T07:34:34;24.00;58.90
2282;DHT22;27486;48.77806476;9.16920056;2022-09-03T07:37:19;24.20;58.60
2282;DHT22;27486;48.77806476;9.16920056;2022-09-03T07:40:03;24.50;58.30
2282;DHT22;27486;48.77806476;9.16920056;2022-09-03T07:42:47;24.70;57.90
2282;DHT22;27486;48.77806476;9.16920056;2022-09-03T07:45:31;24.90;57.20
2282;DHT22;27486;48.77806476;9.16920056;2022-09-03T07:48:16;25.10;56.70
2282;DHT22;27486;48.77806476;9.16920056;2022-09-03T07:51:00;25.30;56.60
2282;DHT22;27486;48.77806476;9.16920056;2022-09-03T07:53:48;25.30;56.50
2282;DHT22;27486;48.77806476;9.16920056;2022-09-03T07:56:32;25.50;56.00
2282;DHT22;27486;48.77806476;9.16920056;2022-09-03T07:59:18;25.60;55.90
2282;DHT22;27486;48.77806476;9.16920056;2022-09-03T08:02:03;25.70;55.90
2282;DHT22;27486;48.77806476;9.16920056;2022-09-03T08:04:48;25.90;55.50
2282;DHT22;27486;48.77806476;9.16920056;2022-09-03T08:07:33;26.00;55.20
2282;DHT22;27486;48.77806476;9.16920056;2022-09-03T08:10:16;26.20;54.80
2282;DHT22;27486;48.77806476;9.16920056;2022-09-03T08:13:00;26.40;54.60
2282;DHT22;27486;48.77806476;9.16920056;2022-09-03T08:15:55;26.70;54.20
2282;DHT22;27486;48.77806476;9.16920056;2022-09-03T08:18:39;27.00;53.90
2282;DHT22;27486;48.77806476;9.16920056;2022-09-03T08:21:24;27.20;53.40
2282;DHT22;27486;48.77806476;9.16920056;2022-09-03T08:24:08;27.60;53.20
2282;DHT22;27486;48.77806476;9.16920056;2022-09-03T08:26:52;27.90;52.40
2282;DHT22;27486;48.77806476;9.16920056;2022-09-03T08:29:36;28.30;51.10
2282;DHT22;27486;48.77806476;9.16920056;2022-09-03T08:32:20;28.60;50.00
2282;DHT22;27486;48.77806476;9.16920056;2022-09-03T08:35:06;28.90;49.30
2282;DHT22;27486;48.77806476;9.16920056;2022-09-03T08:37:52;29.10;48.00
2282;DHT22;27486;48.77806476;9.16920056;2022-09-03T08:40:37;29.10;47.30
2282;DHT22;27486;48.77806476;9.16920056;2022-09-03T08:43:20;29.20;46.70
2282;DHT22;27486;48.77806476;9.16920056;2022-09-03T08:46:05;29.30;45.70
2282;DHT22;27486;48.77806476;9.16920056;2022-09-03T08:48:50;29.30;45.00
2282;DHT22;27486;48.77806476;9.16920056;2022-09-03T08:51:36;29.10;45.20
2282;DHT22;27486;48.77806476;9.16920056;2022-09-03T08:54:25;29.00;46.10
2282;DHT22;27486;48.77806476;9.16920056;2022-09-03T08:57:11;29.00;46.20
2282;DHT22;27486;48.77806476;9.16920056;2022-09-03T08:59:56;29.00;45.80
2282;DHT22;27486;48.77806476;9.16920056;2022-09-03T09:02:57;28.90;45.80
2282;DHT22;27486;48.77806476;9.16920056;2022-09-03T09:18:35;26.70;50.40
2282;DHT22;27486;48.77806476;9.16920056;2022-09-03T09:21:33;26.20;51.90
2282;DHT22;27486;48.77806476;9.16920056;2022-09-03T09:24:24;26.00;52.70
2282;DHT22;27486;48.77806476;9.16920056;2022-09-03T09:27:09;25.60;53.40
2282;DHT22;27486;48.77806476;9.16920056;2022-09-03T09:29:58;25.50;53.60
2282;DHT22;27486;48.77806476;9.16920056;2022-09-03T09:32:44;25.50;53.70
2282;DHT22;27486;48.77806476;9.16920056;2022-09-03T09:35:30;25.40;54.00
2282;DHT22;27486;48.77806476;9.16920056;2022-09-03T09:38:14;25.60;53.80
2282;DHT22;27486;48.77806476;9.16920056;2022-09-03T09:41:14;26.00;53.50
2282;DHT22;27486;48.77806476;9.16920056;2022-09-03T09:44:00;26.40;52.60
2282;DHT22;27486;48.77806476;9.16920056;2022-09-03T09:46:50;26.40;51.30
2282;DHT22;27486;48.77806476;9.16920056;2022-09-03T09:52:33;26.50;52.10
2282;DHT22;27486;48.77806476;9.16920056;2022-09-03T09:55:18;26.60;51.10
2282;DHT22;27486;48.77806476;9.16920056;2022-09-03T09:58:07;26.60;51.00
2282;DHT22;27486;48.77806476;9.16920056;2022-09-03T10:01:19;26.50;51.20
2282;DHT22;27486;48.77806476;9.16920056;2022-09-03T10:07:29;26.20;52.00
2282;DHT22;27486;48.77806476;9.16920056;2022-09-03T10:10:18;26.00;52.00
2282;DHT22;27486;48.77806476;9.16920056;2022-09-03T10:13:07;25.70;52.70
2282;DHT22;27486;48.77806476;9.16920056;2022-09-03T10:16:02;25.60;52.50
2282;DHT22;27486;48.77806476;9.16920056;2022-09-03T10:19:22;25.50;52.90
2282;DHT22;27486;48.77806476;9.16920056;2022-09-03T10:22:15;25.40;53.40
2282;DHT22;27486;48.77806476;9.16920056;2022-09-03T10:25:02;25.30;54.30
2282;DHT22;27486;48.77806476;9.16920056;2022-09-03T10:27:47;25.40;53.30
2282;DHT22;27486;48.77806476;9.16920056;2022-09-03T10:30:38;25.40;52.80
2282;DHT22;27486;48.77806476;9.16920056;2022-09-03T10:33:34;25.40;52.90
2282;DHT22;27486;48.77806476;9.16920056;2022-09-03T10:36:36;25.30;53.30
2282;DHT22;27486;48.77806476;9.16920056;2022-09-03T10:45:35;25.90;52.30
2282;DHT22;27486;48.77806476;9.16920056;2022-09-03T10:48:31;26.10;52.20
2282;DHT22;27486;48.77806476;9.16920056;2022-09-03T10:51:33;26.40;51.90
2282;DHT22;27486;48.77806476;9.16920056;2022-09-03T10:54:21;26.70;51.60
2282;DHT22;27486;48.77806476;9.16920056;2022-09-03T10:57:24;27.30;50.80
2282;DHT22;27486;48.77806476;9.16920056;2022-09-03T11:00:12;27.80;49.40
2282;DHT22;27486;48.77806476;9.16920056;2022-09-03T11:03:14;28.30;48.00
2282;DHT22;27486;48.77806476;9.16920056;2022-09-03T11:06:14;28.60;47.10
2282;DHT22;27486;48.77806476;9.16920056;2022-09-03T11:09:07;29.10;46.50
2282;DHT22;27486;48.77806476;9.16920056;2022-09-03T11:11:58;29.20;45.10
2282;DHT22;27486;48.77806476;9.16920056;2022-09-03T11:14:49;29.50;44.40
2282;DHT22;27486;48.77806476;9.16920056;2022-09-03T11:17:40;29.60;43.80
2282;DHT22;27486;48.77806476;9.16920056;2022-09-03T11:20:26;29.80;43.80
2282;DHT22;27486;48.77806476;9.16920056;2022-09-03T11:23:10;29.90;43.70
2282;DHT22;27486;48.77806476;9.16920056;2022-09-03T11:25:59;30.20;43.00
2282;DHT22;27486;48.77806476;9.16920056;2022-09-03T11:32:01;30.50;42.00
2282;DHT22;27486;48.77806476;9.16920056;2022-09-03T11:34:52;30.60;41.70
2282;DHT22;27486;48.77806476;9.16920056;2022-09-03T11:37:57;30.60;41.20
2282;DHT22;27486;48.77806476;9.16920056;2022-09-03T11:43:43;30.10;41.20
2282;DHT22;27486;48.77806476;9.16920056;2022-09-03T11:46:29;29.70;41.60
2282;DHT22;27486;48.77806476;9.16920056;2022-09-03T11:49:27;29.30;42.90
2282;DHT22;27486;48.77806476;9.16920056;2022-09-03T11:52:11;29.10;43.20
2282;DHT22;27486;48.77806476;9.16920056;2022-09-03T11:54:56;28.90;43.50
2282;DHT22;27486;48.77806476;9.16920056;2022-09-03T11:57:41;28.70;44.00
2282;DHT22;27486;48.77806476;9.16920056;2022-09-03T12:00:26;28.60;44.50
2282;DHT22;27486;48.77806476;9.16920056;2022-09-03T12:03:13;28.30;44.70
2282;DHT22;27486;48.77806476;9.16920056;2022-09-03T12:18:33;27.50;47.40
2282;DHT22;27486;48.77806476;9.16920056;2022-09-03T12:21:18;27.30;48.30
2282;DHT22;27486;48.77806476;9.16920056;2022-09-03T12:24:03;27.20;49.00
2282;DHT22;27486;48.77806476;9.16920056;2022-09-03T12:26:47;27.10;49.70
2282;DHT22;27486;48.77806476;9.16920056;2022-09-03T12:29:31;27.00;50.20
2282;DHT22;27486;48.77806476;9.16920056;2022-09-03T12:32:15;26.90;51.40
2282;DHT22;27486;48.77806476;9.16920056;2022-09-03T12:35:16;26.70;52.00
2282;DHT22;27486;48.77806476;9.16920056;2022-09-03T12:38:01;26.30;53.90
2282;DHT22;27486;48.77806476;9.16920056;2022-09-03T12:40:45;26.00;56.00
2282;DHT22;27486;48.77806476;9.16920056;2022-09-03T12:43:29;25.60;58.20
2282;DHT22;27486;48.77806476;9.16920056;2022-09-03T12:46:14;25.10;61.10
2282;DHT22;27486;48.77806476;9.16920056;2022-09-03T12:49:04;24.40;67.70
2282;DHT22;27486;48.77806476;9.16920056;2022-09-03T12:51:50;23.70;71.00
2282;DHT22;27486;48.77806476;9.16920056;2022-09-03T12:54:42;23.00;77.00
2282;DHT22;27486;48.77806476;9.16920056;2022-09-03T12:57:34;22.60;81.50
2282;DHT22;27486;48.77806476;9.16920056;2022-09-03T13:00:20;22.10;87.70
2282;DHT22;27486;48.77806476;9.16920056;2022-09-03T13:03:18;21.30;94.00
2282;DHT22;27486;48.77806476;9.16920056;2022-09-03T13:06:09;20.60;99.90
2282;DHT22;27486;48.77806476;9.16920056;2022-09-03T13:09:00;20.20;99.90
2282;DHT22;27486;48.77806476;9.16920056;2022-09-03T13:11:44;20.20;99.90
2282;DHT22;27486;48.77806476;9.16920056;2022-09-03T13:14:28;20.20;99.90
2282;DHT22;27486;48.77806476;9.16920056;2022-09-03T13:20:34;20.50;99.90
2282;DHT22;27486;48.77806476;9.16920056;2022-09-03T13:30:04;21.00;99.90
2282;DHT22;27486;48.77806476;9.16920056;2022-09-03T13:33:01;21.40;99.90
2282;DHT22;27486;48.77806476;9.16920056;2022-09-03T13:38:45;21.80;99.90
2282;DHT22;27486;48.77806476;9.16920056;2022-09-03T13:48:00;23.10;99.90
2282;DHT22;27486;48.77806476;9.16920056;2022-09-03T13:51:18;23.30;99.90
2282;DHT22;27486;48.77806476;9.16920056;2022-09-03T13:57:07;23.90;98.40
2282;DHT22;27486;48.77806476;9.16920056;2022-09-03T14:00:13;24.20;95.90
2282;DHT22;27486;48.77806476;9.16920056;2022-09-03T14:03:24;24.70;94.70
2282;DHT22;27486;48.77806476;9.16920056;2022-09-03T14:06:41;25.40;93.30
2282;DHT22;27486;48.77806476;9.16920056;2022-09-03T14:09:53;26.00;90.90
2282;DHT22;27486;48.77806476;9.16920056;2022-09-03T14:19:14;27.90;79.50
2282;DHT22;27486;48.77806476;9.16920056;2022-09-03T14:25:01;28.90;74.50
2282;DHT22;27486;48.77806476;9.16920056;2022-09-03T14:27:47;29.80;72.50
2282;DHT22;27486;48.77806476;9.16920056;2022-09-03T14:30:53;30.70;67.40
2282;DHT22;27486;48.77806476;9.16920056;2022-09-03T14:40:30;30.80;58.90
2282;DHT22;27486;48.77806476;9.16920056;2022-09-03T14:46:54;30.70;58.00
2282;DHT22;27486;48.77806476;9.16920056;2022-09-03T14:53:55;31.00;56.60
2282;DHT22;27486;48.77806476;9.16920056;2022-09-03T15:02:15;32.70;50.60
2282;DHT22;27486;48.77806476;9.16920056;2022-09-03T15:05:14;33.40;48.10
2282;DHT22;27486;48.77806476;9.16920056;2022-09-03T15:08:33;34.60;48.50
2282;DHT22;27486;48.77806476;9.16920056;2022-09-03T15:11:22;36.90;42.70
2282;DHT22;27486;48.77806476;9.16920056;2022-09-03T15:17:46;37.20;39.10
2282;DHT22;27486;48.77806476;9.16920056;2022-09-03T15:24:05;38.60;35.80
2282;DHT22;27486;48.77806476;9.16920056;2022-09-03T15:27:01;38.00;35.00
2282;DHT22;27486;48.77806476;9.16920056;2022-09-03T15:32:47;35.60;37.80
2282;DHT22;27486;48.77806476;9.16920056;2022-09-03T15:38:43;35.20;39.00
2282;DHT22;27486;48.77806476;9.16920056;2022-09-03T15:41:40;37.00;36.00
2282;DHT22;27486;48.77806476;9.16920056;2022-09-03T15:44:35;38.30;34.00
2282;DHT22;27486;48.77806476;9.16920056;2022-09-03T15:50:51;36.80;34.00
2282;DHT22;27486;48.77806476;9.16920056;2022-09-03T15:53:59;35.40;36.50
2282;DHT22;27486;48.77806476;9.16920056;2022-09-03T15:56:57;33.70;39.50
2282;DHT22;27486;48.77806476;9.16920056;2022-09-03T16:00:10;32.40;42.10
2282;DHT22;27486;48.77806476;9.16920056;2022-09-03T16:03:12;31.20;44.80
2282;DHT22;27486;48.77806476;9.16920056;2022-09-03T16:06:19;30.30;47.40
2282;DHT22;27486;48.77806476;9.16920056;2022-09-03T16:09:37;29.90;48.80
2282;DHT22;27486;48.77806476;9.16920056;2022-09-03T16:16:10;30.70;47.90
2282;DHT22;27486;48.77806476;9.16920056;2022-09-03T16:19:18;30.30;48.70
2282;DHT22;27486;48.77806476;9.16920056;2022-09-03T16:22:17;29.70;49.80
2282;DHT22;27486;48.77806476;9.16920056;2022-09-03T16:25:19;29.10;51.50
2282;DHT22;27486;48.77806476;9.16920056;2022-09-03T16:28:08;28.60;53.00
2282;DHT22;27486;48.77806476;9.16920056;2022-09-03T16:34:11;27.60;56.00
2282;DHT22;27486;48.77806476;9.16920056;2022-09-03T16:37:32;27.40;57.00
2282;DHT22;27486;48.77806476;9.16920056;2022-09-03T16:40:41;27.10;58.10
2282;DHT22;27486;48.77806476;9.16920056;2022-09-03T16:46:36;26.90;59.50
2282;DHT22;27486;48.77806476;9.16920056;2022-09-03T16:59:02;26.80;60.50
2282;DHT22;27486;48.77806476;9.16920056;2022-09-03T17:02:02;26.90;60.80
2282;DHT22;27486;48.77806476;9.16920056;2022-09-03T17:05:42;27.00;60.60
2282;DHT22;27486;48.77806476;9.16920056;2022-09-03T17:11:46;26.90;60.80
2282;DHT22;27486;48.77806476;9.16920056;2022-09-03T17:26:55;28.70;57.40
2282;DHT22;27486;48.77806476;9.16920056;2022-09-03T17:36:05;30.30;52.50
2282;DHT22;27486;48.77806476;9.16920056;2022-09-03T17:39:10;29.70;53.00
2282;DHT22;27486;48.77806476;9.16920056;2022-09-03T17:42:31;29.20;53.70
2282;DHT22;27486;48.77806476;9.16920056;2022-09-03T17:45:50;28.60;54.70
2282;DHT22;27486;48.77806476;9.16920056;2022-09-03T17:52:12;27.60;57.30
2282;DHT22;27486;48.77806476;9.16920056;2022-09-03T17:55:49;27.20;58.20
2282;DHT22;27486;48.77806476;9.16920056;2022-09-03T17:58:42;26.70;59.40
2282;DHT22;27486;48.77806476;9.16920056;2022-09-03T18:01:27;26.20;61.00
2282;DHT22;27486;48.77806476;9.16920056;2022-09-03T18:11:12;25.20;65.40
2282;DHT22;27486;48.77806476;9.16920056;2022-09-03T18:14:32;24.70;67.30
2282;DHT22;27486;48.77806476;9.16920056;2022-09-03T18:17:42;24.40;69.10
2282;DHT22;27486;48.77806476;9.16920056;2022-09-03T18:20:31;24.10;70.50
2282;DHT22;27486;48.77806476;9.16920056;2022-09-03T18:24:10;23.80;71.90
2282;DHT22;27486;48.77806476;9.16920056;2022-09-03T18:27:43;23.50;74.00
2282;DHT22;27486;48.77806476;9.16920056;2022-09-03T18:30:48;23.20;77.00
2282;DHT22;27486;48.77806476;9.16920056;2022-09-03T18:33:51;23.00;78.50
2282;DHT22;27486;48.77806476;9.16920056;2022-09-03T18:36:57;22.80;80.30
2282;DHT22;27486;48.77806476;9.16920056;2022-09-03T18:40:00;22.60;82.60
2282;DHT22;27486;48.77806476;9.16920056;2022-09-03T18:43:24;22.50;83.70
2282;DHT22;27486;48.77806476;9.16920056;2022-09-03T18:46:44;22.30;85.40
2282;DHT22;27486;48.77806476;9.16920056;2022-09-03T18:56:49;22.10;91.00